Terminal Aerodrome Forecast
Issued by NWS

Home | Current Version | Previous Version | Text Only | Print | Product List | Glossary On
Versions: 1 2 3 4 5 6 7 8 9 10 11 12 13 14 15 16 17 18 19 20 21 22 23 24 25 26 27 28 29
749
FTUS41 KGYX 261720
TAFPSM
TAF
KPSM 261720Z 2618/2718 11009KT P6SM FEW040 BKN250
     FM270600 08003KT P6SM SCT025 OVC050 PROB30 2706/2707 P6SM -SHRA
      BKN025 OVC050
     FM270800 11004KT 5SM BR OVC019
     FM271200 09005KT 6SM BR OVC015=

USA.gov is the U.S. government's official web portal to all federal, state and local government web resources and services.